Time;durP1;ratioP1;P1;durP2;ratioP2;P2;SDS_P1;SDS_P2;PMS_P1;PMS_P2;Temp;Humidity;BMP_temperature;BMP_pressure;BME280_temperature;BME280_humidity;BME280_pressure;Samples;Min_cycle;Max_cycle;Signal;HPM_P1;HPM_P2
2022/03/20 00:01:04;;;;;;;16.05;11.05;;;;;;;;;;5073486;28;20104;-70
2022/03/20 00:03:30;;;;;;;19.13;14.25;;;230.60;1024.00;;;;;;5073957;28;20017;-67
2022/03/20 00:05:57;;;;;;;23.58;13.60;;;230.70;998.40;;;;;;5074596;28;20085;-68
2022/03/20 00:08:23;;;;;;;27.80;16.20;;;230.70;998.40;;;;;;5074212;28;20112;-69
2022/03/20 00:10:52;;;;;;;27.02;17.13;;;230.70;1024.00;;;;;;5073768;28;20028;-67
2022/03/20 00:13:20;;;;;;;26.73;17.17;;;230.50;1024.00;;;;;;5073610;28;20021;-71
2022/03/20 00:15:47;;;;;;;27.40;16.05;;;;;;;;;;5073196;28;20483;-71
2022/03/20 00:18:15;;;;;;;45.45;25.70;;;230.70;1024.00;;;;;;5073617;28;20028;-70
2022/03/20 00:20:46;;;;;;;64.50;34.60;;;230.70;1049.60;;;;;;5073491;28;20021;-67
2022/03/20 00:23:13;;;;;;;49.50;29.85;;;230.80;1587.20;;;;;;5067538;28;20036;-70
2022/03/20 00:25:42;;;;;;;43.65;25.33;;;230.80;1024.00;;;;;;5072899;28;20052;-70
2022/03/20 00:28:09;;;;;;;47.58;27.77;;;230.60;1049.60;;;;;;5073387;28;20156;-70
2022/03/20 00:30:35;;;;;;;43.00;26.75;;;;;;;;;;5065296;28;20041;-70
2022/03/20 00:33:02;;;;;;;45.72;26.40;;;;;;;;;;5072682;28;20356;-72
2022/03/20 00:35:29;;;;;;;34.35;21.92;;;;;;;;;;5072683;28;20035;-72
2022/03/20 00:37:54;;;;;;;39.15;23.15;;;205.60;1100.80;;;;;;5073044;28;20031;-71
2022/03/20 00:40:20;;;;;;;37.97;22.27;;;205.60;1100.80;;;;;;5065280;28;20020;-68
2022/03/20 00:42:46;;;;;;;31.13;20.20;;;;;;;;;;5073021;28;20012;-74
2022/03/20 00:45:12;;;;;;;30.30;19.13;;;;;;;;;;5072554;28;20025;-75
2022/03/20 00:47:38;;;;;;;57.10;31.17;;;;;;;;;;5072668;28;20023;-75
2022/03/20 00:50:05;;;;;;;27.38;18.35;;;;;;;;;;5072764;28;20041;-73
2022/03/20 00:52:32;;;;;;;30.15;17.80;;;;;;;;;;5072659;28;20024;-71
2022/03/20 00:55:01;;;;;;;28.13;17.00;;;;;;;;;;5072808;28;20035;-69
2022/03/20 00:57:27;;;;;;;23.30;15.75;;;;;;;;;;5072699;28;20070;-71
2022/03/20 00:59:53;;;;;;;26.70;16.88;;;;;;;;;;5072115;28;20069;-69
2022/03/20 01:02:19;;;;;;;25.45;16.08;;;;;;;;;;5072811;28;20035;-69
2022/03/20 01:04:48;;;;;;;25.00;16.17;;;;;;;;;;5072993;28;20431;-69
2022/03/20 01:07:15;;;;;;;25.38;17.38;;;;;;;;;;5072686;28;20090;-71
2022/03/20 01:09:41;;;;;;;24.20;16.17;;;;;;;;;;5072393;28;20024;-69
2022/03/20 01:12:14;;;;;;;24.77;16.45;;;;;;;;;;5072529;28;20479;-71
2022/03/20 01:14:40;;;;;;;24.23;15.48;;;;;;;;;;5065898;28;20088;-71
2022/03/20 01:17:06;;;;;;;33.03;22.75;;;;;;;;;;5072758;28;20025;-72
2022/03/20 01:19:32;;;;;;;34.60;21.02;;;;;;;;;;5072509;28;20052;-73
2022/03/20 01:21:59;;;;;;;32.58;19.80;;;;;;;;;;5072851;28;20024;-70
2022/03/20 01:24:27;;;;;;;34.08;21.77;;;;;;;;;;5070896;28;20025;-69
2022/03/20 01:26:54;;;;;;;31.65;19.33;;;;;;;;;;5072441;28;20559;-68
2022/03/20 01:29:20;;;;;;;38.33;23.50;;;;;;;;;;5072340;28;20048;-73
2022/03/20 01:31:46;;;;;;;38.95;24.15;;;;;;;;;;5072029;28;20569;-73
2022/03/20 01:34:12;;;;;;;33.97;23.52;;;;;;;;;;5072652;28;20017;-72
2022/03/20 01:36:38;;;;;;;32.90;21.10;;;;;;;;;;5071962;28;20108;-70
2022/03/20 01:39:04;;;;;;;34.03;22.20;;;;;;;;;;5072465;28;20025;-73
2022/03/20 01:41:30;;;;;;;33.83;21.23;;;;;;;;;;5072724;28;20078;-74
2022/03/20 01:43:59;;;;;;;35.58;20.63;;;;;;;;;;5071481;28;20052;-73
2022/03/20 01:46:25;;;;;;;29.38;19.15;;;;;;;;;;5071921;28;20430;-70
2022/03/20 01:48:51;;;;;;;31.23;22.05;;;;;;;;;;5072449;28;20024;-72
2022/03/20 01:51:17;;;;;;;29.80;21.08;;;;;;;;;;5072127;28;20028;-73
2022/03/20 01:53:44;;;;;;;33.05;21.35;;;;;;;;;;5071902;28;20036;-70
2022/03/20 01:56:10;;;;;;;38.35;24.77;;;204.80;1536.00;;;;;;5071855;28;20029;-71
2022/03/20 01:58:36;;;;;;;34.03;21.60;;;205.00;1177.60;;;;;;5072100;28;20120;-71
2022/03/20 02:01:03;;;;;;;30.00;19.70;;;;;;;;;;5072274;28;20031;-70
2022/03/20 02:03:30;;;;;;;27.90;18.13;;;;;;;;;;5072498;28;20024;-69
2022/03/20 02:05:56;;;;;;;35.67;20.65;;;;;;;;;;5071981;28;20025;-72
2022/03/20 02:08:26;;;;;;;39.75;27.73;;;;;;;;;;5071956;28;20024;-74
2022/03/20 02:10:55;;;;;;;37.55;26.48;;;;;;;;;;5071951;28;20154;-74
2022/03/20 02:13:22;;;;;;;41.95;26.05;;;;;;;;;;5072161;28;20376;-75
2022/03/20 02:15:49;;;;;;;37.63;23.33;;;180.10;1228.80;;;;;;5053947;28;20024;-73
2022/03/20 02:18:16;;;;;;;31.88;20.70;;;180.10;1228.80;;;;;;5072014;28;20039;-73
2022/03/20 02:20:48;;;;;;;22.35;15.32;;;180.10;1228.80;;;;;;5072121;28;20535;-68
2022/03/20 02:23:15;;;;;;;40.30;27.88;;;204.90;1228.80;;;;;;5072019;28;20494;-69
2022/03/20 02:25:51;;;;;;;38.25;26.25;;;204.80;1228.80;;;;;;5071912;28;20411;-67
2022/03/20 02:28:18;;;;;;;34.58;18.27;;;;;;;;;;5071259;28;20032;-64
2022/03/20 02:30:45;;;;;;;28.65;18.92;;;;;;;;;;5071516;28;20036;-64
2022/03/20 02:33:11;;;;;;;41.55;25.60;;;;;;;;;;5072002;28;20025;-65
2022/03/20 02:35:39;;;;;;;35.58;22.90;;;;;;;;;;5072145;28;20426;-67
2022/03/20 02:38:05;;;;;;;29.23;18.52;;;;;;;;;;5071753;28;20025;-66
2022/03/20 02:40:31;;;;;;;26.42;17.88;;;179.60;1254.40;;;;;;5071734;28;20048;-69
2022/03/20 02:42:57;;;;;;;32.88;17.42;;;179.70;1254.40;;;;;;5072252;28;20052;-66
2022/03/20 02:45:30;;;;;;;27.63;17.00;;;179.40;1254.40;;;;;;5071768;28;20035;-65
2022/03/20 02:47:58;;;;;;;37.55;23.75;;;179.30;1280.00;;;;;;5072033;28;20095;-67
2022/03/20 02:50:28;;;;;;;54.20;25.50;;;;;;;;;;5071749;28;20032;-66
2022/03/20 02:52:58;;;;;;;50.58;28.67;;;;;;;;;;5071756;28;20060;-68
2022/03/20 02:55:24;;;;;;;54.03;33.00;;;;;;;;;;5072811;28;20037;-66
2022/03/20 02:57:52;;;;;;;55.63;33.85;;;154.50;1356.80;;;;;;5075820;28;20025;-69
2022/03/20 03:00:21;;;;;;;51.10;33.05;;;154.50;1356.80;;;;;;5075536;28;20016;-67
2022/03/20 03:02:49;;;;;;;52.92;35.50;;;154.50;1382.40;;;;;;5075963;28;20176;-68
2022/03/20 03:05:17;;;;;;;64.35;37.40;;;154.20;1382.40;;;;;;5075276;28;20482;-67
2022/03/20 03:13:14;;;;;;;53.72;34.67;;;;;;;;;;5075816;28;20039;-70
2022/03/20 03:15:41;;;;;;;57.47;35.17;;;;;;;;;;5074999;28;20654;-67
2022/03/20 03:18:07;;;;;;;57.35;35.47;;;;;;;;;;5075156;28;20402;-67
2022/03/20 03:20:34;;;;;;;62.13;38.28;;;;;;;;;;5074905;28;20028;-67
2022/03/20 03:23:00;;;;;;;68.05;40.17;;;154.10;1382.40;;;;;;5075103;28;20028;-68
2022/03/20 03:25:26;;;;;;;67.70;43.58;;;153.90;1408.00;;;;;;5074948;28;20491;-67
2022/03/20 03:27:53;;;;;;;62.03;39.50;;;;;;;;;;5075134;28;20107;-66
2022/03/20 03:30:19;;;;;;;61.47;38.35;;;154.30;1382.40;;;;;;5074616;28;20029;-65
2022/03/20 03:32:45;;;;;;;66.43;40.72;;;154.10;1408.00;;;;;;5074696;28;20025;-67
2022/03/20 03:38:00;;;;;;;67.22;37.08;;;154.10;1408.00;;;;;;5074959;28;20032;-67
2022/03/20 03:40:26;;;;;;;54.08;34.92;;;;;;;;;;5074765;28;20025;-66
2022/03/20 03:42:52;;;;;;;59.08;34.53;;;;;;;;;;5074818;28;20020;-66
2022/03/20 03:45:18;;;;;;;57.28;35.72;;;;;;;;;;5074730;28;20557;-66
2022/03/20 03:47:44;;;;;;;57.28;37.03;;;153.70;1433.60;;;;;;5074380;28;20043;-67
2022/03/20 03:50:10;;;;;;;61.97;34.83;;;153.80;1433.60;;;;;;5074397;28;20048;-66
2022/03/20 03:52:39;;;;;;;54.28;34.88;;;;;;;;;;5074404;28;20021;-65
2022/03/20 03:55:06;;;;;;;53.25;33.92;;;154.10;1382.40;;;;;;5074615;28;20079;-63
2022/03/20 03:57:32;;;;;;;56.67;35.75;;;154.20;1382.40;;;;;;5074846;28;20044;-65
2022/03/20 03:59:58;;;;;;;53.75;31.55;;;154.00;1408.00;;;;;;5074538;28;20118;-65
2022/03/20 04:02:24;;;;;;;52.85;34.33;;;154.40;1382.40;;;;;;5074420;28;20016;-65
2022/03/20 04:04:51;;;;;;;49.53;31.60;;;;;;;;;;5074154;28;20039;-64
2022/03/20 04:07:17;;;;;;;64.13;38.15;;;;;;;;;;5073405;28;20020;-64
2022/03/20 04:09:47;;;;;;;64.88;39.58;;;153.80;1408.00;;;;;;5074408;28;20082;-64
2022/03/20 04:12:14;;;;;;;97.15;54.03;;;153.90;1408.00;;;;;;5074212;28;20410;-65
2022/03/20 04:14:43;;;;;;;67.75;43.38;;;154.00;1408.00;;;;;;5074190;28;20067;-65
2022/03/20 04:17:09;;;;;;;73.18;42.70;;;;;;;;;;5074047;28;20017;-66
2022/03/20 04:19:35;;;;;;;60.13;38.72;;;153.70;1433.60;;;;;;5074119;28;20024;-68
2022/03/20 04:22:02;;;;;;;60.17;39.25;;;154.10;1408.00;;;;;;5074144;28;20051;-70
2022/03/20 04:24:28;;;;;;;63.60;40.13;;;;;;;;;;5073961;28;20032;-72
2022/03/20 04:26:55;;;;;;;59.58;35.75;;;;;;;;;;5073872;28;20021;-72
2022/03/20 04:29:21;;;;;;;43.85;30.65;;;;;;;;;;5073666;28;20099;-73
2022/03/20 04:31:54;;;;;;;43.95;30.45;;;;;;;;;;5073332;28;20021;-74
2022/03/20 04:34:20;;;;;;;38.85;26.75;;;;;;;;;;5073646;28;20297;-69
2022/03/20 04:36:46;;;;;;;61.05;36.92;;;128.90;1433.60;;;;;;5073541;28;20029;-70
2022/03/20 04:39:12;;;;;;;39.08;27.88;;;;;;;;;;5073691;28;20025;-64
2022/03/20 04:41:38;;;;;;;95.43;59.42;;;153.60;1715.20;;;;;;5073785;28;20028;-66
2022/03/20 04:44:07;;;;;;;40.13;28.02;;;128.50;1459.20;;;;;;5073835;28;20121;-70
2022/03/20 04:46:33;;;;;;;45.72;29.20;;;;;;;;;;5073228;28;20470;-69
2022/03/20 04:59:57;;;;;;;45.28;26.33;;;;;;;;;;5055221;28;20040;-68
2022/03/20 05:02:24;;;;;;;37.20;23.08;;;;;;;;;;5073033;28;20032;-68
2022/03/20 05:04:49;;;;;;;67.65;36.50;;;128.20;2073.60;;;;;;5073041;28;20102;-68
2022/03/20 05:07:15;;;;;;;53.88;33.25;;;;;;;;;;5073076;28;20471;-68
2022/03/20 05:15:18;;;;;;;49.05;30.35;;;;;;;;;;5034278;28;20536;-69
2022/03/20 05:17:45;;;;;;;35.13;23.25;;;;;;;;;;5072620;28;20025;-68
2022/03/20 05:20:11;;;;;;;41.13;27.88;;;;;;;;;;5072594;28;20029;-65
2022/03/20 05:22:38;;;;;;;49.35;32.15;;;128.60;1459.20;;;;;;5072751;28;20036;-68
2022/03/20 05:25:08;;;;;;;48.85;32.03;;;128.70;1459.20;;;;;;5072727;28;20699;-65
2022/03/20 05:27:35;;;;;;;49.40;31.55;;;;;;;;;;5072892;28;20166;-71
2022/03/20 05:30:03;;;;;;;33.15;23.25;;;128.30;1510.40;;;;;;5072419;28;20166;-68
2022/03/20 05:32:28;;;;;;;38.47;24.08;;;128.60;1459.20;;;;;;5072526;28;20052;-72
2022/03/20 05:34:54;;;;;;;34.70;23.40;;;;;;;;;;5072767;28;20539;-70
2022/03/20 05:37:20;;;;;;;42.63;28.75;;;;;;;;;;5053886;28;20040;-67
2022/03/20 05:39:46;;;;;;;49.45;32.13;;;128.80;1459.20;;;;;;5072691;28;20021;-65
2022/03/20 05:42:14;;;;;;;47.75;31.70;;;128.90;1459.20;;;;;;5072481;28;20013;-70
2022/03/20 05:44:41;;;;;;;62.40;37.80;;;;;;;;;;5072745;28;20398;-66
2022/03/20 05:47:07;;;;;;;98.78;51.90;;;;;;;;;;5072288;28;20061;-71
2022/03/20 05:49:35;;;;;;;46.25;28.17;;;128.40;1484.80;;;;;;5073114;28;20510;-71
2022/03/20 05:52:00;;;;;;;33.80;24.58;;;128.30;1484.80;;;;;;5072480;28;20039;-66
2022/03/20 05:54:26;;;;;;;43.78;31.50;;;128.10;1510.40;;;;;;5068277;28;20021;-72
2022/03/20 05:59:36;;;;;;;33.47;21.75;;;103.20;1792.00;;;;;;5052599;28;20067;-71
2022/03/20 06:02:04;;;;;;;31.40;21.73;;;103.20;1484.80;;;;;;5071091;28;20075;-68
2022/03/20 06:04:31;;;;;;;34.08;22.08;;;128.10;1510.40;;;;;;5072178;28;20399;-69
2022/03/20 06:06:58;;;;;;;34.67;22.88;;;;;;;;;;5072208;28;20019;-69
2022/03/20 06:09:24;;;;;;;45.13;30.90;;;;;;;;;;5072120;28;20036;-73
2022/03/20 06:11:50;;;;;;;39.60;28.30;;;128.40;1484.80;;;;;;5072139;28;20397;-66
2022/03/20 06:14:17;;;;;;;42.13;27.30;;;;;;;;;;5072107;28;20066;-69
2022/03/20 06:16:47;;;;;;;32.38;22.48;;;;;;;;;;5072372;28;20242;-68
2022/03/20 06:19:15;;;;;;;33.45;23.63;;;128.50;1408.00;;;;;;5054852;28;20025;-68
2022/03/20 06:21:42;;;;;;;39.22;22.08;;;128.60;1433.60;;;;;;5072038;28;20032;-67
2022/03/20 06:24:08;;;;;;;38.33;23.48;;;;;;;;;;5072189;28;20413;-66
2022/03/20 06:26:35;;;;;;;37.22;24.48;;;;;;;;;;5071841;28;20086;-67
2022/03/20 06:29:01;;;;;;;31.60;20.90;;;;;;;;;;5072174;28;20013;-66
2022/03/20 06:31:27;;;;;;;63.08;38.00;;;154.00;1356.80;;;;;;5075230;28;20382;-67
2022/03/20 06:33:54;;;;;;;76.32;43.13;;;154.30;1587.20;;;;;;5075721;28;20035;-70
2022/03/20 06:36:20;;;;;;;37.20;24.30;;;154.20;1356.80;;;;;;5057537;28;20040;-66
2022/03/20 06:38:46;;;;;;;45.88;25.30;;;154.40;1331.20;;;;;;5075763;28;20021;-65
2022/03/20 06:41:12;;;;;;;126.07;68.15;;;;;;;;;;5075902;28;20074;-67
2022/03/20 06:43:38;;;;;;;44.05;26.92;;;179.40;1305.60;;;;;;5075774;28;20056;-67
2022/03/20 06:46:07;;;;;;;33.65;22.63;;;179.70;1305.60;;;;;;5075898;28;20485;-65
2022/03/20 06:48:34;;;;;;;48.50;30.48;;;;;;;;;;5075722;28;20032;-65
2022/03/20 06:51:00;;;;;;;50.25;31.10;;;;;;;;;;5075801;28;20068;-65
2022/03/20 06:53:27;;;;;;;55.22;30.95;;;;;;;;;;5075692;28;20479;-65
2022/03/20 06:55:53;;;;;;;87.55;46.83;;;;;;;;;;5059693;28;20098;-65
2022/03/20 06:58:23;;;;;;;79.30;51.25;;;205.20;1228.80;;;;;;5055489;28;20021;-67
2022/03/20 07:00:50;;;;;;;63.40;43.90;;;;;;;;;;5064118;28;20101;-68
2022/03/20 07:03:16;;;;;;;27.30;18.75;;;205.50;1177.60;;;;;;5075150;28;20046;-65
2022/03/20 07:05:42;;;;;;;25.08;18.52;;;;;;;;;;5075296;28;20024;-70
2022/03/20 07:08:08;;;;;;;29.77;26.83;;;230.40;1100.80;;;;;;5075487;28;20025;-67
2022/03/20 07:10:35;;;;;;;24.02;19.80;;;;;;;;;;5075172;28;20029;-70
2022/03/20 07:15:47;;;;;;;17.23;13.50;;;;;;;;;;5075034;28;20030;-63
2022/03/20 07:18:15;;;;;;;45.85;27.33;;;;;;;;;;5057308;28;20463;-65
2022/03/20 07:20:43;;;;;;;30.73;19.45;;;;;;;;;;5075370;28;20033;-66
2022/03/20 07:23:12;;;;;;;36.38;23.05;;;;;;;;;;5074973;28;20031;-65
2022/03/20 07:31:09;;;;;;;56.17;21.00;;;231.00;1049.60;;;;;;5074596;28;20043;-63
2022/03/20 07:33:35;;;;;;;35.42;21.48;;;231.10;1049.60;;;;;;5074662;28;20024;-66
2022/03/20 07:36:02;;;;;;;27.65;20.63;;;;;;;;;;5075367;28;20020;-65
2022/03/20 07:38:28;;;;;;;40.53;14.27;;;231.20;1024.00;;;;;;5074715;28;20024;-64
2022/03/20 07:40:54;;;;;;;18.13;11.15;;;;;;;;;;5074565;28;20036;-65
2022/03/20 07:43:21;;;;;;;49.10;22.73;;;;;;;;;;5074184;28;20040;-68
2022/03/20 07:45:47;;;;;;;29.08;13.32;;;;;;;;;;5074862;28;20024;-67
2022/03/20 07:48:13;;;;;;;44.72;19.58;;;256.20;896.00;;;;;;5074727;28;20024;-67
2022/03/20 07:50:40;;;;;;;30.52;9.93;;;256.40;896.00;;;;;;5074540;28;20481;-64
2022/03/20 07:53:06;;;;;;;23.80;13.32;;;;;;;;;;5075108;28;20035;-67
2022/03/20 07:55:34;;;;;;;32.55;20.25;;;;;;;;;;5075132;28;20480;-62
2022/03/20 07:58:00;;;;;;;23.25;14.30;;;;;;;;;;5074529;28;20452;-67
2022/03/20 08:00:26;;;;;;;43.15;23.58;;;;;;;;;;5074277;28;20036;-65
2022/03/20 08:02:52;;;;;;;48.58;27.10;;;;;;;;;;5074423;28;20024;-64
2022/03/20 08:05:18;;;;;;;25.00;15.80;;;281.90;896.00;;;;;;5074397;28;20081;-65
2022/03/20 08:07:44;;;;;;;14.10;7.25;;;281.90;1203.20;;;;;;5074545;28;20033;-63
2022/03/20 08:10:11;;;;;;;18.65;9.15;;;;;;;;;;5074763;28;20033;-65
2022/03/20 08:12:38;;;;;;;18.42;8.95;;;;;;;;;;5074682;28;20021;-65
2022/03/20 08:15:05;;;;;;;17.23;9.07;;;;;;;;;;5074289;28;20029;-65
2022/03/20 08:17:31;;;;;;;13.05;8.63;;;;;;;;;;5074405;28;20052;-66
2022/03/20 08:19:58;;;;;;;9.98;7.15;;;;;;;;;;5074297;28;20411;-63
2022/03/20 08:22:27;;;;;;;10.77;7.90;;;282.40;870.40;;;;;;5073726;28;20115;-65
2022/03/20 08:24:52;;;;;;;15.82;9.50;;;282.40;870.40;;;;;;5073373;28;20056;-66
2022/03/20 08:27:20;;;;;;;13.23;8.60;;;307.20;896.00;;;;;;5074238;28;20024;-62
2022/03/20 08:29:46;;;;;;;19.48;12.75;;;307.30;896.00;;;;;;5073737;28;20391;-67
2022/03/20 08:32:12;;;;;;;25.33;14.88;;;307.50;896.00;;;;;;5073609;28;20027;-68
2022/03/20 08:34:38;;;;;;;14.43;9.57;;;;;;;;;;5073741;28;20024;-67
2022/03/20 08:37:04;;;;;;;18.00;9.75;;;;;;;;;;5073325;28;20082;-69
2022/03/20 08:39:30;;;;;;;12.52;7.93;;;;;;;;;;5073454;28;20119;-68
2022/03/20 08:41:56;;;;;;;10.05;6.80;;;;;;;;;;5073256;28;20410;-69
2022/03/20 08:44:26;;;;;;;10.85;6.18;;;;;;;;;;5073394;28;20027;-69
2022/03/20 08:46:52;;;;;;;7.82;6.13;;;;;;;;;;5073364;28;20536;-71
2022/03/20 08:49:19;;;;;;;12.70;7.80;;;;;;;;;;5073139;28;20035;-70
2022/03/20 08:51:45;;;;;;;7.95;5.38;;;;;;;;;;5073205;28;20112;-71
2022/03/20 08:54:11;;;;;;;14.55;8.25;;;308.10;844.80;;;;;;5072666;28;20037;-70
2022/03/20 08:56:38;;;;;;;13.82;10.00;;;308.10;1100.80;;;;;;5073010;28;20027;-69
2022/03/20 08:59:04;;;;;;;12.00;6.82;;;;;;;;;;5073072;28;20111;-69
2022/03/20 09:01:31;;;;;;;8.20;5.82;;;;;;;;;;5072893;28;20025;-71
2022/03/20 09:03:57;;;;;;;9.20;6.30;;;;;;;;;;5073174;28;20020;-70
2022/03/20 09:06:23;;;;;;;13.60;5.72;;;;;;;;;;5073344;28;20021;-70
2022/03/20 09:08:49;;;;;;;7.15;5.65;;;;;;;;;;5072935;28;20036;-71
2022/03/20 09:11:15;;;;;;;10.10;5.82;;;;;;;;;;5072800;28;20036;-68
2022/03/20 09:13:41;;;;;;;8.45;5.35;;;;;;;;;;5072765;28;20025;-71
2022/03/20 09:18:59;;;;;;;11.07;6.10;;;;;;;;;;5073213;28;20074;-69
2022/03/20 09:21:25;;;;;;;9.55;5.55;;;;;;;;;;5072770;28;20025;-71
2022/03/20 09:23:51;;;;;;;7.03;4.68;;;;;;;;;;5072651;28;20368;-70
2022/03/20 09:26:17;;;;;;;9.45;5.22;;;;;;;;;;5072492;28;20048;-70
2022/03/20 09:28:47;;;;;;;14.63;5.63;;;333.60;819.20;;;;;;5072531;28;20020;-70
2022/03/20 09:31:15;;;;;;;25.40;14.40;;;333.70;793.60;;;;;;5071082;28;20044;-72
2022/03/20 09:33:41;;;;;;;9.45;5.40;;;;;;;;;;5071987;28;20048;-68
2022/03/20 09:36:07;;;;;;;7.15;4.80;;;;;;;;;;5053877;28;20083;-71
2022/03/20 09:38:34;;;;;;;10.35;7.00;;;;;;;;;;5061917;28;20111;-70
2022/03/20 09:41:03;;;;;;;13.50;7.55;;;;;;;;;;5072301;28;20024;-70
2022/03/20 09:43:31;;;;;;;12.82;7.20;;;;;;;;;;5072326;28;20017;-69
2022/03/20 09:45:58;;;;;;;12.10;8.63;;;;;;;;;;5072163;28;20058;-71
2022/03/20 09:48:26;;;;;;;11.20;7.95;;;;;;;;;;5054089;28;20033;-68
2022/03/20 09:50:52;;;;;;;9.00;5.82;;;;;;;;;;5071948;28;20025;-68
2022/03/20 09:53:19;;;;;;;19.17;12.45;;;358.90;768.00;;;;;;5072165;28;20529;-69
2022/03/20 09:55:46;;;;;;;12.13;7.25;;;;;;;;;;5072183;28;20032;-72
2022/03/20 09:58:12;;;;;;;24.58;15.95;;;;;;;;;;5072338;28;20468;-71
2022/03/20 10:00:39;;;;;;;21.60;12.95;;;;;;;;;;5071858;28;20024;-71
2022/03/20 10:03:15;;;;;;;13.77;9.60;;;;;;;;;;5054279;28;20021;-68
2022/03/20 10:05:41;;;;;;;33.65;21.83;;;;;;;;;;5071530;28;20375;-71
2022/03/20 10:08:19;;;;;;;23.80;17.00;;;;;;;;;;5072013;28;20025;-69
2022/03/20 10:10:47;;;;;;;27.77;21.73;;;;;;;;;;5072048;28;20032;-69
2022/03/20 10:13:14;;;;;;;31.40;20.63;;;;;;;;;;5072420;28;20024;-72
2022/03/20 10:15:41;;;;;;;20.65;12.55;;;;;;;;;;5072580;28;20021;-70
2022/03/20 10:18:15;;;;;;;41.03;22.52;;;;;;;;;;5072120;28;20048;-70
2022/03/20 10:20:46;;;;;;;16.88;9.70;;;;;;;;;;5071800;28;20029;-68
2022/03/20 10:23:32;;;;;;;88.03;45.97;;;;;;;;;;5072288;28;20020;-68
2022/03/20 10:25:59;;;;;;;26.15;15.73;;;;;;;;;;5071896;28;20049;-67
2022/03/20 10:28:33;;;;;;;17.50;9.85;;;;;;;;;;5071991;28;20430;-71
2022/03/20 10:31:00;;;;;;;53.80;29.73;;;;;;;;;;5071618;28;20399;-70
2022/03/20 10:33:26;;;;;;;23.80;16.25;;;;;;;;;;5071933;28;20020;-72
2022/03/20 10:36:12;;;;;;;22.77;13.75;;;;;;;;;;5071916;28;20096;-71
2022/03/20 10:38:38;;;;;;;7.88;5.93;;;;;;;;;;5071804;28;20025;-67
2022/03/20 10:41:23;;;;;;;66.32;38.38;;;;;;;;;;5072207;28;20048;-71
2022/03/20 10:43:50;;;;;;;13.45;10.57;;;;;;;;;;5071683;28;20044;-69
2022/03/20 10:46:20;;;;;;;78.15;43.75;;;;;;;;;;5071875;28;20020;-70
2022/03/20 10:48:48;;;;;;;107.50;60.97;;;;;;;;;;5071681;28;20490;-70
2022/03/20 10:51:14;;;;;;;24.77;16.23;;;;;;;;;;5071630;28;20089;-70
2022/03/20 10:53:54;;;;;;;66.05;35.10;;;;;;;;;;5071633;28;20027;-71
2022/03/20 10:56:20;;;;;;;19.60;13.50;;;;;;;;;;5051528;28;20093;-71
2022/03/20 10:58:46;;;;;;;11.02;7.10;;;;;;;;;;5051469;28;20029;-71
2022/03/20 11:01:13;;;;;;;15.70;11.60;;;;;;;;;;5062043;28;20046;-71
2022/03/20 11:03:40;;;;;;;15.73;10.82;;;;;;;;;;5071689;28;20048;-71
2022/03/20 11:06:10;;;;;;;21.35;12.30;;;;;;;;;;5071587;28;20049;-69
2022/03/20 11:08:40;;;;;;;13.40;8.93;;;;;;;;;;5071901;28;20028;-68
2022/03/20 11:11:27;;;;;;;63.90;32.28;;;;;;;;;;5071958;28;20043;-73
2022/03/20 11:14:33;;;;;;;;;;;;;;;;;;;;;
2022/03/20 11:17:33;;;;;;;11.95;8.30;;;;;;;;;;5073518;28;20027;-70
2022/03/20 11:20:12;;;;;;;39.15;23.90;;;;;;;;;;5055575;28;20017;-71
2022/03/20 11:29:01;;;;;;;26.98;16.55;;;;;;;;;;4974053;28;20039;-72
2022/03/20 11:32:06;;;;;;;19.40;12.05;;;487.20;665.60;;;;;;4956442;28;20544;-72
2022/03/20 11:35:35;;;;;;;17.60;12.73;;;512.70;640.00;;;;;;4973261;28;20035;-73
2022/03/20 11:38:42;;;;;;;6.75;5.20;;;512.70;614.40;;;;;;4896871;29;20048;-70
2022/03/20 11:44:35;;;;;;;10.25;7.07;;;487.30;665.60;;;;;;4878547;29;20037;-71
2022/03/20 11:47:33;;;;;;;35.97;19.02;;;;;;;;;;4878496;29;20124;-69
2022/03/20 11:54:25;;;;;;;33.65;19.00;;;512.20;870.40;;;;;;4846537;29;20037;-70
2022/03/20 11:56:54;;;;;;;62.95;36.78;;;;;;;;;;4822933;29;20042;-72
2022/03/20 11:59:38;;;;;;;69.07;35.42;;;;;;;;;;4842189;29;20034;-68
2022/03/20 12:02:06;;;;;;;48.85;27.23;;;;;;;;;;4875830;29;20037;-69
2022/03/20 12:04:40;;;;;;;45.33;23.85;;;;;;;;;;4929184;28;20039;-68
2022/03/20 12:07:19;;;;;;;37.88;23.83;;;;;;;;;;4973552;28;20070;-68
2022/03/20 12:09:57;;;;;;;19.52;16.35;;;538.50;614.40;;;;;;4973561;28;20037;-69
2022/03/20 12:12:23;;;;;;;23.45;15.05;;;;;;;;;;4973414;28;20529;-69
2022/03/20 12:14:53;;;;;;;16.95;11.85;;;563.30;640.00;;;;;;5007632;28;20034;-68
2022/03/20 12:17:19;;;;;;;16.77;11.15;;;563.60;640.00;;;;;;5012114;28;20603;-68
2022/03/20 12:19:53;;;;;;;20.95;14.13;;;563.60;640.00;;;;;;5011928;28;20025;-69
2022/03/20 12:22:19;;;;;;;21.65;14.38;;;563.70;640.00;;;;;;5073856;28;20024;-70
2022/03/20 12:24:55;;;;;;;21.38;16.67;;;564.10;614.40;;;;;;5073484;28;20025;-69
2022/03/20 12:29:48;;;;;;;22.92;15.27;;;563.90;640.00;;;;;;5073410;28;20028;-68
2022/03/20 12:32:15;;;;;;;18.40;11.95;;;564.00;640.00;;;;;;5073365;28;20032;-69
2022/03/20 12:34:42;;;;;;;10.77;9.65;;;563.90;640.00;;;;;;5073522;28;20057;-69
2022/03/20 12:37:27;;;;;;;19.70;13.45;;;;;;;;;;5073395;28;20017;-70
2022/03/20 12:39:54;;;;;;;9.85;7.80;;;;;;;;;;5073264;28;20021;-69
2022/03/20 12:42:21;;;;;;;11.32;7.20;;;;;;;;;;5073477;28;20386;-69
2022/03/20 12:44:48;;;;;;;13.88;9.88;;;;;;;;;;5073580;28;20066;-69
2022/03/20 12:47:22;;;;;;;29.77;8.98;;;;;;;;;;5073225;28;20086;-70
2022/03/20 12:49:52;;;;;;;15.18;11.25;;;;;;;;;;5073012;28;20100;-69
2022/03/20 12:52:19;;;;;;;14.93;11.70;;;;;;;;;;5073273;28;20051;-68
2022/03/20 12:55:11;;;;;;;17.05;13.20;;;;;;;;;;5066203;28;20021;-68
2022/03/20 12:57:38;;;;;;;14.75;11.20;;;;;;;;;;5048847;28;20146;-68
2022/03/20 13:00:12;;;;;;;18.23;11.65;;;563.70;614.40;;;;;;5053615;28;20025;-69
2022/03/20 13:03:04;;;;;;;26.15;15.05;;;563.60;614.40;;;;;;5072768;28;20414;-69
2022/03/20 13:05:46;;;;;;;17.15;11.60;;;538.40;640.00;;;;;;5073358;28;20040;-69
2022/03/20 13:08:39;;;;;;;19.35;11.13;;;537.60;665.60;;;;;;5073367;28;20107;-69
2022/03/20 13:11:48;;;;;;;21.50;14.55;;;512.00;691.20;;;;;;5068745;28;20403;-68
2022/03/20 13:14:14;;;;;;;18.45;13.85;;;;;;;;;;5073129;28;20498;-70
2022/03/20 13:16:51;;;;;;;22.65;12.30;;;;;;;;;;5072859;28;20063;-68
2022/03/20 13:19:26;;;;;;;30.25;11.45;;;;;;;;;;5072614;28;20051;-69
2022/03/20 13:21:52;;;;;;;27.75;13.38;;;;;;;;;;5072671;28;20510;-70
2022/03/20 13:24:32;;;;;;;19.65;13.98;;;;;;;;;;5072569;28;20070;-69
2022/03/20 13:26:59;;;;;;;20.85;12.07;;;;;;;;;;5072542;28;20090;-69
2022/03/20 13:29:25;;;;;;;19.73;12.50;;;;;;;;;;5073125;28;20490;-68
2022/03/20 13:32:04;;;;;;;14.23;11.13;;;435.90;716.80;;;;;;5072228;28;20068;-68
2022/03/20 13:34:31;;;;;;;18.38;10.45;;;;;;;;;;5054685;28;20123;-68
2022/03/20 13:37:04;;;;;;;26.95;14.43;;;;;;;;;;5072725;28;20025;-69
2022/03/20 13:39:30;;;;;;;32.35;18.83;;;;;;;;;;5072493;28;20109;-69
2022/03/20 13:41:56;;;;;;;13.40;8.38;;;;;;;;;;5072432;28;20017;-69
2022/03/20 13:44:22;;;;;;;19.27;12.55;;;;;;;;;;5054082;28;20478;-69
2022/03/20 13:46:49;;;;;;;17.17;12.55;;;;;;;;;;5072556;28;20024;-68
2022/03/20 13:49:15;;;;;;;13.60;9.60;;;435.50;691.20;;;;;;5072370;28;20051;-68
2022/03/20 13:51:46;;;;;;;17.02;12.02;;;435.50;691.20;;;;;;5072098;28;20091;-68
2022/03/20 13:54:18;;;;;;;34.67;18.63;;;435.20;691.20;;;;;;5069737;28;20489;-68
2022/03/20 13:56:44;;;;;;;;;;;;;;;;;;5052686;28;20487;-69
2022/03/20 13:59:12;;;;;;;27.83;18.55;;;;;;;;;;5051949;28;20046;-69
2022/03/20 14:01:49;;;;;;;15.80;10.27;;;410.30;716.80;;;;;;5065554;28;20524;-68
2022/03/20 14:04:17;;;;;;;21.10;13.93;;;410.20;716.80;;;;;;5072455;28;20036;-68
2022/03/20 14:06:45;;;;;;;20.92;13.23;;;;;;;;;;5072291;28;20024;-68
2022/03/20 14:09:12;;;;;;;22.30;13.77;;;;;;;;;;5072046;28;20116;-68
2022/03/20 14:11:38;;;;;;;29.77;18.88;;;;;;;;;;5072091;28;20114;-69
2022/03/20 14:14:08;;;;;;;17.45;13.57;;;410.10;716.80;;;;;;5072250;28;20443;-68
2022/03/20 14:16:35;;;;;;;29.80;17.88;;;409.90;742.40;;;;;;5072549;28;20032;-69
2022/03/20 14:19:11;;;;;;;26.58;16.65;;;409.90;716.80;;;;;;5072042;28;20029;-69
2022/03/20 14:21:37;;;;;;;16.90;11.57;;;;;;;;;;5071965;28;20031;-69
2022/03/20 14:24:12;;;;;;;17.85;12.02;;;409.90;716.80;;;;;;5072312;28;20047;-69
2022/03/20 14:26:45;;;;;;;21.52;13.23;;;409.90;716.80;;;;;;5071716;28;20127;-69
2022/03/20 14:40:49;;;;;;;14.15;7.85;;;384.90;691.20;;;;;;5072137;28;20090;-69
2022/03/20 14:43:15;;;;;;;17.77;11.45;;;384.80;691.20;;;;;;5071577;28;20021;-68